sensor_id;sensor_type;location;lat;lon;timestamp;P1;durP1;ratioP1;P2;durP2;ratioP2
15408;SDS011;7803;48.130;13.788;2022-07-05T00:02:53;2.47;;;2.10;;
15408;SDS011;7803;48.130;13.788;2022-07-05T00:05:55;2.30;;;2.10;;
15408;SDS011;7803;48.130;13.788;2022-07-05T00:09:09;2.20;;;2.00;;
15408;SDS011;7803;48.130;13.788;2022-07-05T00:12:13;2.28;;;2.08;;
15408;SDS011;7803;48.130;13.788;2022-07-05T00:15:16;1.98;;;1.83;;
15408;SDS011;7803;48.130;13.788;2022-07-05T00:18:18;2.17;;;2.00;;
15408;SDS011;7803;48.130;13.788;2022-07-05T00:21:20;1.98;;;1.67;;
15408;SDS011;7803;48.130;13.788;2022-07-05T00:28:13;2.80;;;1.50;;
15408;SDS011;7803;48.130;13.788;2022-07-05T00:31:29;1.75;;;1.65;;
15408;SDS011;7803;48.130;13.788;2022-07-05T00:34:31;1.70;;;1.58;;
15408;SDS011;7803;48.130;13.788;2022-07-05T00:37:33;1.70;;;1.60;;
15408;SDS011;7803;48.130;13.788;2022-07-05T00:40:47;1.63;;;1.45;;
15408;SDS011;7803;48.130;13.788;2022-07-05T03:17:53;1.48;;;1.20;;
15408;SDS011;7803;48.130;13.788;2022-07-05T03:20:55;1.13;;;1.02;;
15408;SDS011;7803;48.130;13.788;2022-07-05T03:24:11;1.92;;;1.23;;
15408;SDS011;7803;48.130;13.788;2022-07-05T03:27:28;2.63;;;1.05;;
15408;SDS011;7803;48.130;13.788;2022-07-05T03:30:44;1.67;;;1.30;;
15408;SDS011;7803;48.130;13.788;2022-07-05T03:34:09;1.67;;;1.25;;
15408;SDS011;7803;48.130;13.788;2022-07-05T03:37:29;1.30;;;1.20;;
15408;SDS011;7803;48.130;13.788;2022-07-05T03:40:52;1.40;;;1.30;;
15408;SDS011;7803;48.130;13.788;2022-07-05T03:44:08;1.30;;;1.00;;
15408;SDS011;7803;48.130;13.788;2022-07-05T03:47:34;1.50;;;1.05;;
15408;SDS011;7803;48.130;13.788;2022-07-05T03:51:04;1.58;;;1.10;;
15408;SDS011;7803;48.130;13.788;2022-07-05T03:54:10;1.45;;;1.00;;
15408;SDS011;7803;48.130;13.788;2022-07-05T03:57:31;1.45;;;1.20;;
15408;SDS011;7803;48.130;13.788;2022-07-05T04:00:48;1.75;;;1.10;;
15408;SDS011;7803;48.130;13.788;2022-07-05T04:04:06;3.25;;;1.17;;
15408;SDS011;7803;48.130;13.788;2022-07-05T04:14:56;1.20;;;1.10;;
15408;SDS011;7803;48.130;13.788;2022-07-05T04:18:02;1.33;;;0.98;;
15408;SDS011;7803;48.130;13.788;2022-07-05T04:21:19;2.40;;;1.20;;
15408;SDS011;7803;48.130;13.788;2022-07-05T04:24:23;1.15;;;1.00;;
15408;SDS011;7803;48.130;13.788;2022-07-05T04:27:28;2.42;;;1.20;;
15408;SDS011;7803;48.130;13.788;2022-07-05T04:45:57;1.52;;;1.30;;
15408;SDS011;7803;48.130;13.788;2022-07-05T04:49:08;1.88;;;0.80;;
15408;SDS011;7803;48.130;13.788;2022-07-05T04:52:45;1.13;;;0.90;;
15408;SDS011;7803;48.130;13.788;2022-07-05T04:55:56;1.30;;;0.90;;
15408;SDS011;7803;48.130;13.788;2022-07-05T04:58:58;2.90;;;1.20;;
15408;SDS011;7803;48.130;13.788;2022-07-05T05:05:36;1.63;;;0.90;;
15408;SDS011;7803;48.130;13.788;2022-07-05T05:08:39;3.72;;;1.30;;
15408;SDS011;7803;48.130;13.788;2022-07-05T05:11:41;1.63;;;1.20;;
15408;SDS011;7803;48.130;13.788;2022-07-05T05:14:46;2.08;;;1.20;;
15408;SDS011;7803;48.130;13.788;2022-07-05T05:18:04;1.13;;;1.00;;
15408;SDS011;7803;48.130;13.788;2022-07-05T05:21:06;2.50;;;1.10;;
15408;SDS011;7803;48.130;13.788;2022-07-05T05:24:22;1.73;;;1.08;;
15408;SDS011;7803;48.130;13.788;2022-07-05T05:27:24;1.73;;;1.10;;
15408;SDS011;7803;48.130;13.788;2022-07-05T05:30:26;2.83;;;1.13;;
15408;SDS011;7803;48.130;13.788;2022-07-05T05:33:33;1.77;;;1.10;;
15408;SDS011;7803;48.130;13.788;2022-07-05T05:36:35;1.50;;;1.10;;
15408;SDS011;7803;48.130;13.788;2022-07-05T05:39:37;1.73;;;1.10;;
15408;SDS011;7803;48.130;13.788;2022-07-05T05:42:39;1.50;;;1.08;;
15408;SDS011;7803;48.130;13.788;2022-07-05T05:45:41;1.50;;;1.17;;
15408;SDS011;7803;48.130;13.788;2022-07-05T05:48:45;3.10;;;1.40;;
15408;SDS011;7803;48.130;13.788;2022-07-05T05:51:47;1.67;;;1.33;;
15408;SDS011;7803;48.130;13.788;2022-07-05T05:54:49;2.08;;;1.50;;
15408;SDS011;7803;48.130;13.788;2022-07-05T05:57:51;2.40;;;1.30;;
15408;SDS011;7803;48.130;13.788;2022-07-05T06:00:54;2.15;;;1.30;;
15408;SDS011;7803;48.130;13.788;2022-07-05T06:03:57;1.38;;;1.27;;
15408;SDS011;7803;48.130;13.788;2022-07-05T06:07:00;2.55;;;1.30;;
15408;SDS011;7803;48.130;13.788;2022-07-05T06:10:02;2.42;;;1.50;;
15408;SDS011;7803;48.130;13.788;2022-07-05T06:13:05;1.77;;;1.30;;
15408;SDS011;7803;48.130;13.788;2022-07-05T06:16:23;2.30;;;1.30;;
15408;SDS011;7803;48.130;13.788;2022-07-05T06:19:41;1.83;;;1.33;;
15408;SDS011;7803;48.130;13.788;2022-07-05T06:23:01;1.50;;;1.40;;
15408;SDS011;7803;48.130;13.788;2022-07-05T06:26:17;2.30;;;1.30;;
15408;SDS011;7803;48.130;13.788;2022-07-05T06:29:20;1.50;;;1.40;;
15408;SDS011;7803;48.130;13.788;2022-07-05T06:32:22;2.38;;;1.60;;
15408;SDS011;7803;48.130;13.788;2022-07-05T06:35:26;1.85;;;1.60;;
15408;SDS011;7803;48.130;13.788;2022-07-05T06:38:29;1.70;;;1.60;;
15408;SDS011;7803;48.130;13.788;2022-07-05T06:41:31;2.13;;;1.77;;
15408;SDS011;7803;48.130;13.788;2022-07-05T06:44:47;1.73;;;1.63;;
15408;SDS011;7803;48.130;13.788;2022-07-05T06:48:04;1.60;;;1.50;;
15408;SDS011;7803;48.130;13.788;2022-07-05T07:02:42;2.33;;;1.83;;
15408;SDS011;7803;48.130;13.788;2022-07-05T07:05:44;2.10;;;1.90;;
15408;SDS011;7803;48.130;13.788;2022-07-05T07:08:46;2.88;;;1.63;;
15408;SDS011;7803;48.130;13.788;2022-07-05T07:12:08;2.67;;;1.70;;
15408;SDS011;7803;48.130;13.788;2022-07-05T07:15:25;2.08;;;1.70;;
15408;SDS011;7803;48.130;13.788;2022-07-05T07:22:27;3.30;;;1.52;;
15408;SDS011;7803;48.130;13.788;2022-07-05T07:25:30;1.88;;;1.60;;
15408;SDS011;7803;48.130;13.788;2022-07-05T07:28:37;2.00;;;1.80;;
15408;SDS011;7803;48.130;13.788;2022-07-05T07:31:39;2.17;;;1.70;;
15408;SDS011;7803;48.130;13.788;2022-07-05T07:34:41;2.97;;;1.70;;
15408;SDS011;7803;48.130;13.788;2022-07-05T07:37:44;2.03;;;1.83;;
15408;SDS011;7803;48.130;13.788;2022-07-05T07:40:47;2.50;;;1.60;;
15408;SDS011;7803;48.130;13.788;2022-07-05T07:44:03;1.95;;;1.50;;
15408;SDS011;7803;48.130;13.788;2022-07-05T07:47:19;1.70;;;1.60;;
15408;SDS011;7803;48.130;13.788;2022-07-05T07:50:31;2.15;;;1.75;;
15408;SDS011;7803;48.130;13.788;2022-07-05T07:57:36;2.20;;;1.67;;
15408;SDS011;7803;48.130;13.788;2022-07-05T08:00:38;2.08;;;1.83;;
15408;SDS011;7803;48.130;13.788;2022-07-05T08:03:54;1.70;;;1.60;;
15408;SDS011;7803;48.130;13.788;2022-07-05T08:06:59;3.22;;;1.60;;
15408;SDS011;7803;48.130;13.788;2022-07-05T08:10:14;2.72;;;1.52;;
15408;SDS011;7803;48.130;13.788;2022-07-05T08:17:18;2.20;;;2.00;;
15408;SDS011;7803;48.130;13.788;2022-07-05T08:20:23;1.83;;;1.70;;
15408;SDS011;7803;48.130;13.788;2022-07-05T08:23:43;1.95;;;1.60;;
15408;SDS011;7803;48.130;13.788;2022-07-05T08:26:59;1.98;;;1.70;;
15408;SDS011;7803;48.130;13.788;2022-07-05T08:30:01;1.70;;;1.60;;
15408;SDS011;7803;48.130;13.788;2022-07-05T08:33:19;3.85;;;1.80;;
15408;SDS011;7803;48.130;13.788;2022-07-05T08:36:21;2.53;;;1.80;;
15408;SDS011;7803;48.130;13.788;2022-07-05T08:39:38;2.38;;;1.83;;
15408;SDS011;7803;48.130;13.788;2022-07-05T08:42:54;2.47;;;1.60;;
15408;SDS011;7803;48.130;13.788;2022-07-05T08:45:58;1.80;;;1.70;;
15408;SDS011;7803;48.130;13.788;2022-07-05T08:49:04;2.05;;;1.80;;
15408;SDS011;7803;48.130;13.788;2022-07-05T08:52:11;2.90;;;2.00;;
15408;SDS011;7803;48.130;13.788;2022-07-05T08:55:19;2.10;;;1.90;;
15408;SDS011;7803;48.130;13.788;2022-07-05T08:58:38;2.65;;;2.00;;
15408;SDS011;7803;48.130;13.788;2022-07-05T09:01:55;2.20;;;2.00;;
15408;SDS011;7803;48.130;13.788;2022-07-05T09:05:17;3.35;;;2.20;;
15408;SDS011;7803;48.130;13.788;2022-07-05T09:08:20;3.75;;;2.00;;
15408;SDS011;7803;48.130;13.788;2022-07-05T09:11:23;3.50;;;2.25;;
15408;SDS011;7803;48.130;13.788;2022-07-05T09:14:26;2.10;;;1.95;;
15408;SDS011;7803;48.130;13.788;2022-07-05T09:17:29;3.15;;;2.08;;
15408;SDS011;7803;48.130;13.788;2022-07-05T09:20:32;3.00;;;2.15;;
15408;SDS011;7803;48.130;13.788;2022-07-05T09:23:34;2.25;;;2.10;;
15408;SDS011;7803;48.130;13.788;2022-07-05T09:26:37;3.00;;;2.05;;
15408;SDS011;7803;48.130;13.788;2022-07-05T09:30:02;3.22;;;2.20;;
15408;SDS011;7803;48.130;13.788;2022-07-05T09:33:19;2.17;;;2.08;;
15408;SDS011;7803;48.130;13.788;2022-07-05T09:40:21;2.22;;;2.10;;
15408;SDS011;7803;48.130;13.788;2022-07-05T09:43:24;3.05;;;2.60;;
15408;SDS011;7803;48.130;13.788;2022-07-05T09:46:31;3.05;;;2.85;;
15408;SDS011;7803;48.130;13.788;2022-07-05T09:49:33;2.90;;;2.60;;
15408;SDS011;7803;48.130;13.788;2022-07-05T09:52:53;2.78;;;2.55;;
15408;SDS011;7803;48.130;13.788;2022-07-05T10:03:41;2.60;;;2.40;;
15408;SDS011;7803;48.130;13.788;2022-07-05T10:06:53;2.95;;;2.63;;
15408;SDS011;7803;48.130;13.788;2022-07-05T10:09:56;2.92;;;2.63;;
15408;SDS011;7803;48.130;13.788;2022-07-05T10:12:58;2.70;;;2.50;;
15408;SDS011;7803;48.130;13.788;2022-07-05T10:16:01;2.97;;;2.50;;
15408;SDS011;7803;48.130;13.788;2022-07-05T10:19:06;2.60;;;2.40;;
15408;SDS011;7803;48.130;13.788;2022-07-05T10:22:16;2.83;;;2.40;;
15408;SDS011;7803;48.130;13.788;2022-07-05T10:25:21;2.75;;;2.50;;
15408;SDS011;7803;48.130;13.788;2022-07-05T10:28:25;2.65;;;2.45;;
15408;SDS011;7803;48.130;13.788;2022-07-05T10:31:28;2.50;;;2.30;;
15408;SDS011;7803;48.130;13.788;2022-07-05T10:34:32;2.20;;;2.10;;
15408;SDS011;7803;48.130;13.788;2022-07-05T10:37:48;2.60;;;2.10;;
15408;SDS011;7803;48.130;13.788;2022-07-05T10:40:52;2.70;;;2.50;;
15408;SDS011;7803;48.130;13.788;2022-07-05T10:43:57;2.40;;;2.20;;
15408;SDS011;7803;48.130;13.788;2022-07-05T10:47:08;2.30;;;2.10;;
15408;SDS011;7803;48.130;13.788;2022-07-05T10:50:19;3.80;;;2.20;;
15408;SDS011;7803;48.130;13.788;2022-07-05T10:53:26;2.25;;;2.05;;
15408;SDS011;7803;48.130;13.788;2022-07-05T10:56:31;3.33;;;2.00;;
15408;SDS011;7803;48.130;13.788;2022-07-05T11:03:10;2.30;;;2.10;;
15408;SDS011;7803;48.130;13.788;2022-07-05T11:06:41;2.10;;;1.90;;
15408;SDS011;7803;48.130;13.788;2022-07-05T11:09:58;2.15;;;2.00;;
15408;SDS011;7803;48.130;13.788;2022-07-05T11:13:04;2.20;;;2.00;;
15408;SDS011;7803;48.130;13.788;2022-07-05T11:16:43;3.00;;;2.22;;
15408;SDS011;7803;48.130;13.788;2022-07-05T11:20:02;2.25;;;2.05;;
15408;SDS011;7803;48.130;13.788;2022-07-05T11:30:46;2.63;;;2.22;;
15408;SDS011;7803;48.130;13.788;2022-07-05T11:33:52;2.67;;;2.25;;
15408;SDS011;7803;48.130;13.788;2022-07-05T11:40:27;2.58;;;2.20;;
15408;SDS011;7803;48.130;13.788;2022-07-05T11:43:31;2.03;;;1.88;;
15408;SDS011;7803;48.130;13.788;2022-07-05T11:53:35;4.72;;;2.20;;
15408;SDS011;7803;48.130;13.788;2022-07-05T11:56:37;2.60;;;2.40;;
15408;SDS011;7803;48.130;13.788;2022-07-05T11:59:39;2.55;;;2.22;;
15408;SDS011;7803;48.130;13.788;2022-07-05T12:02:42;2.45;;;2.25;;
15408;SDS011;7803;48.130;13.788;2022-07-05T12:05:44;2.60;;;2.40;;
15408;SDS011;7803;48.130;13.788;2022-07-05T12:08:49;3.13;;;2.60;;
15408;SDS011;7803;48.130;13.788;2022-07-05T12:12:03;2.88;;;2.33;;
15408;SDS011;7803;48.130;13.788;2022-07-05T12:15:23;2.63;;;2.20;;
15408;SDS011;7803;48.130;13.788;2022-07-05T12:18:27;2.88;;;2.53;;
15408;SDS011;7803;48.130;13.788;2022-07-05T12:21:30;2.63;;;2.40;;
15408;SDS011;7803;48.130;13.788;2022-07-05T12:24:33;2.50;;;2.30;;
15408;SDS011;7803;48.130;13.788;2022-07-05T12:27:36;2.70;;;2.35;;
15408;SDS011;7803;48.130;13.788;2022-07-05T12:30:39;3.45;;;2.70;;
15408;SDS011;7803;48.130;13.788;2022-07-05T12:33:41;3.35;;;2.70;;
15408;SDS011;7803;48.130;13.788;2022-07-05T12:36:43;3.17;;;2.85;;
15408;SDS011;7803;48.130;13.788;2022-07-05T12:39:47;2.50;;;2.30;;
15408;SDS011;7803;48.130;13.788;2022-07-05T12:42:59;2.42;;;2.28;;
15408;SDS011;7803;48.130;13.788;2022-07-05T12:46:06;2.50;;;2.30;;
15408;SDS011;7803;48.130;13.788;2022-07-05T12:49:09;2.58;;;2.38;;
15408;SDS011;7803;48.130;13.788;2022-07-05T12:52:11;6.53;;;2.40;;
15408;SDS011;7803;48.130;13.788;2022-07-05T12:55:14;2.60;;;2.40;;
15408;SDS011;7803;48.130;13.788;2022-07-05T12:58:46;3.13;;;2.30;;
15408;SDS011;7803;48.130;13.788;2022-07-05T13:01:51;2.45;;;2.25;;
15408;SDS011;7803;48.130;13.788;2022-07-05T13:04:53;3.78;;;2.42;;
15408;SDS011;7803;48.130;13.788;2022-07-05T13:07:55;3.42;;;2.85;;
15408;SDS011;7803;48.130;13.788;2022-07-05T13:10:59;3.65;;;2.60;;
15408;SDS011;7803;48.130;13.788;2022-07-05T13:14:01;3.15;;;2.30;;
15408;SDS011;7803;48.130;13.788;2022-07-05T13:17:03;3.17;;;2.50;;
15408;SDS011;7803;48.130;13.788;2022-07-05T13:20:06;2.97;;;2.60;;
15408;SDS011;7803;48.130;13.788;2022-07-05T13:23:09;2.60;;;2.40;;
15408;SDS011;7803;48.130;13.788;2022-07-05T13:26:12;2.60;;;2.40;;
15408;SDS011;7803;48.130;13.788;2022-07-05T13:29:14;4.05;;;2.55;;
15408;SDS011;7803;48.130;13.788;2022-07-05T13:32:16;2.50;;;2.30;;
15408;SDS011;7803;48.130;13.788;2022-07-05T13:35:21;2.58;;;2.30;;
15408;SDS011;7803;48.130;13.788;2022-07-05T13:38:23;3.20;;;2.58;;
15408;SDS011;7803;48.130;13.788;2022-07-05T13:41:26;2.65;;;2.45;;
15408;SDS011;7803;48.130;13.788;2022-07-05T13:44:29;2.63;;;2.42;;
15408;SDS011;7803;48.130;13.788;2022-07-05T13:47:31;2.67;;;2.35;;
15408;SDS011;7803;48.130;13.788;2022-07-05T13:50:33;2.60;;;2.40;;
15408;SDS011;7803;48.130;13.788;2022-07-05T13:53:37;3.30;;;2.28;;
15408;SDS011;7803;48.130;13.788;2022-07-05T13:56:40;2.65;;;2.25;;
15408;SDS011;7803;48.130;13.788;2022-07-05T13:59:43;2.78;;;2.58;;
15408;SDS011;7803;48.130;13.788;2022-07-05T14:02:45;2.72;;;2.50;;
15408;SDS011;7803;48.130;13.788;2022-07-05T14:05:47;4.43;;;2.80;;
15408;SDS011;7803;48.130;13.788;2022-07-05T14:08:49;2.55;;;2.35;;
15408;SDS011;7803;48.130;13.788;2022-07-05T14:11:52;2.45;;;2.25;;
15408;SDS011;7803;48.130;13.788;2022-07-05T14:14:55;2.70;;;2.50;;
15408;SDS011;7803;48.130;13.788;2022-07-05T14:17:57;2.53;;;2.33;;
15408;SDS011;7803;48.130;13.788;2022-07-05T14:20:59;2.75;;;2.33;;
15408;SDS011;7803;48.130;13.788;2022-07-05T14:24:02;2.90;;;2.28;;
15408;SDS011;7803;48.130;13.788;2022-07-05T14:27:06;3.78;;;2.47;;
15408;SDS011;7803;48.130;13.788;2022-07-05T14:30:08;2.60;;;2.40;;
15408;SDS011;7803;48.130;13.788;2022-07-05T14:33:11;2.65;;;2.40;;
15408;SDS011;7803;48.130;13.788;2022-07-05T14:36:14;4.18;;;2.42;;
15408;SDS011;7803;48.130;13.788;2022-07-05T14:39:18;3.50;;;2.70;;
15408;SDS011;7803;48.130;13.788;2022-07-05T14:42:22;3.15;;;2.70;;
15408;SDS011;7803;48.130;13.788;2022-07-05T14:45:24;3.55;;;2.85;;
15408;SDS011;7803;48.130;13.788;2022-07-05T14:48:26;3.17;;;2.60;;
15408;SDS011;7803;48.130;13.788;2022-07-05T14:51:28;2.85;;;2.58;;
15408;SDS011;7803;48.130;13.788;2022-07-05T14:54:30;3.25;;;2.67;;
15408;SDS011;7803;48.130;13.788;2022-07-05T14:57:34;3.22;;;2.92;;
15408;SDS011;7803;48.130;13.788;2022-07-05T15:00:36;3.45;;;2.92;;
15408;SDS011;7803;48.130;13.788;2022-07-05T15:03:38;3.85;;;2.78;;
15408;SDS011;7803;48.130;13.788;2022-07-05T15:06:40;2.70;;;2.50;;
15408;SDS011;7803;48.130;13.788;2022-07-05T15:09:42;2.95;;;2.75;;
15408;SDS011;7803;48.130;13.788;2022-07-05T15:12:46;3.22;;;2.70;;
15408;SDS011;7803;48.130;13.788;2022-07-05T15:15:48;3.10;;;2.80;;
15408;SDS011;7803;48.130;13.788;2022-07-05T15:18:50;3.17;;;2.88;;
15408;SDS011;7803;48.130;13.788;2022-07-05T15:21:53;3.40;;;2.80;;
15408;SDS011;7803;48.130;13.788;2022-07-05T15:24:55;3.33;;;2.83;;
15408;SDS011;7803;48.130;13.788;2022-07-05T15:27:58;3.20;;;2.90;;
15408;SDS011;7803;48.130;13.788;2022-07-05T15:31:00;3.55;;;2.90;;
15408;SDS011;7803;48.130;13.788;2022-07-05T15:34:02;3.20;;;2.90;;
15408;SDS011;7803;48.130;13.788;2022-07-05T15:37:05;3.20;;;2.92;;
15408;SDS011;7803;48.130;13.788;2022-07-05T15:40:08;4.68;;;3.30;;
15408;SDS011;7803;48.130;13.788;2022-07-05T15:43:12;3.83;;;3.33;;
15408;SDS011;7803;48.130;13.788;2022-07-05T15:46:14;3.30;;;3.10;;
15408;SDS011;7803;48.130;13.788;2022-07-05T15:49:16;3.45;;;3.00;;
15408;SDS011;7803;48.130;13.788;2022-07-05T15:52:19;3.85;;;3.45;;
15408;SDS011;7803;48.130;13.788;2022-07-05T15:55:22;4.63;;;3.30;;
15408;SDS011;7803;48.130;13.788;2022-07-05T15:58:26;3.70;;;3.40;;
15408;SDS011;7803;48.130;13.788;2022-07-05T16:01:28;3.65;;;3.20;;
15408;SDS011;7803;48.130;13.788;2022-07-05T16:04:30;4.57;;;3.58;;
15408;SDS011;7803;48.130;13.788;2022-07-05T16:07:32;3.47;;;3.17;;
15408;SDS011;7803;48.130;13.788;2022-07-05T16:10:34;3.70;;;3.20;;
15408;SDS011;7803;48.130;13.788;2022-07-05T16:13:37;3.50;;;3.30;;
15408;SDS011;7803;48.130;13.788;2022-07-05T16:16:39;3.80;;;3.50;;
15408;SDS011;7803;48.130;13.788;2022-07-05T16:19:41;3.58;;;3.28;;
15408;SDS011;7803;48.130;13.788;2022-07-05T16:22:43;3.60;;;3.30;;
15408;SDS011;7803;48.130;13.788;2022-07-05T16:25:45;3.72;;;3.22;;
15408;SDS011;7803;48.130;13.788;2022-07-05T16:28:49;5.00;;;3.60;;
15408;SDS011;7803;48.130;13.788;2022-07-05T16:31:51;3.75;;;3.45;;
15408;SDS011;7803;48.130;13.788;2022-07-05T16:34:53;3.72;;;3.35;;
15408;SDS011;7803;48.130;13.788;2022-07-05T16:37:55;3.70;;;3.40;;
15408;SDS011;7803;48.130;13.788;2022-07-05T16:40:58;4.13;;;3.72;;
15408;SDS011;7803;48.130;13.788;2022-07-05T16:44:01;3.75;;;3.33;;
15408;SDS011;7803;48.130;13.788;2022-07-05T16:47:04;3.92;;;3.25;;
15408;SDS011;7803;48.130;13.788;2022-07-05T16:50:06;3.78;;;3.13;;
15408;SDS011;7803;48.130;13.788;2022-07-05T16:53:09;3.70;;;3.40;;
15408;SDS011;7803;48.130;13.788;2022-07-05T16:56:12;4.07;;;3.78;;
15408;SDS011;7803;48.130;13.788;2022-07-05T16:59:16;4.00;;;3.60;;
15408;SDS011;7803;48.130;13.788;2022-07-05T17:02:18;3.70;;;3.30;;
15408;SDS011;7803;48.130;13.788;2022-07-05T17:05:20;3.88;;;3.58;;
15408;SDS011;7803;48.130;13.788;2022-07-05T17:08:22;3.55;;;3.30;;
15408;SDS011;7803;48.130;13.788;2022-07-05T17:11:24;3.67;;;3.38;;
15408;SDS011;7803;48.130;13.788;2022-07-05T17:14:27;3.65;;;3.35;;
15408;SDS011;7803;48.130;13.788;2022-07-05T17:17:29;4.13;;;3.30;;
15408;SDS011;7803;48.130;13.788;2022-07-05T17:20:31;3.53;;;3.22;;
15408;SDS011;7803;48.130;13.788;2022-07-05T17:23:33;3.85;;;3.47;;
15408;SDS011;7803;48.130;13.788;2022-07-05T17:26:36;3.63;;;3.30;;
15408;SDS011;7803;48.130;13.788;2022-07-05T17:29:40;4.32;;;3.40;;
15408;SDS011;7803;48.130;13.788;2022-07-05T17:32:42;3.72;;;3.35;;
15408;SDS011;7803;48.130;13.788;2022-07-05T17:35:44;3.42;;;3.22;;
15408;SDS011;7803;48.130;13.788;2022-07-05T17:38:46;3.50;;;3.20;;
15408;SDS011;7803;48.130;13.788;2022-07-05T17:41:49;3.70;;;3.40;;
15408;SDS011;7803;48.130;13.788;2022-07-05T17:44:52;3.50;;;3.20;;
15408;SDS011;7803;48.130;13.788;2022-07-05T17:47:54;3.53;;;3.22;;
15408;SDS011;7803;48.130;13.788;2022-07-05T17:50:56;3.33;;;3.03;;
15408;SDS011;7803;48.130;13.788;2022-07-05T17:53:58;3.45;;;3.15;;
15408;SDS011;7803;48.130;13.788;2022-07-05T17:57:00;3.40;;;3.20;;
15408;SDS011;7803;48.130;13.788;2022-07-05T18:00:04;3.17;;;2.90;;
15408;SDS011;7803;48.130;13.788;2022-07-05T18:03:07;3.38;;;3.08;;
15408;SDS011;7803;48.130;13.788;2022-07-05T18:06:09;4.15;;;2.92;;
15408;SDS011;7803;48.130;13.788;2022-07-05T18:09:11;3.50;;;3.10;;
15408;SDS011;7803;48.130;13.788;2022-07-05T18:12:13;3.40;;;2.90;;
15408;SDS011;7803;48.130;13.788;2022-07-05T18:15:17;3.50;;;3.10;;
15408;SDS011;7803;48.130;13.788;2022-07-05T18:18:19;3.17;;;2.95;;
15408;SDS011;7803;48.130;13.788;2022-07-05T18:21:21;3.33;;;3.03;;
15408;SDS011;7803;48.130;13.788;2022-07-05T18:24:23;3.20;;;3.00;;
15408;SDS011;7803;48.130;13.788;2022-07-05T18:27:25;3.22;;;2.90;;
15408;SDS011;7803;48.130;13.788;2022-07-05T18:30:29;3.70;;;3.40;;
15408;SDS011;7803;48.130;13.788;2022-07-05T18:33:31;3.42;;;3.13;;
15408;SDS011;7803;48.130;13.788;2022-07-05T18:36:33;3.70;;;3.30;;
15408;SDS011;7803;48.130;13.788;2022-07-05T18:39:35;3.22;;;3.03;;
15408;SDS011;7803;48.130;13.788;2022-07-05T18:42:37;3.35;;;3.05;;
15408;SDS011;7803;48.130;13.788;2022-07-05T18:45:40;4.03;;;3.15;;
15408;SDS011;7803;48.130;13.788;2022-07-05T18:48:43;3.58;;;3.28;;
15408;SDS011;7803;48.130;13.788;2022-07-05T18:51:45;4.05;;;3.28;;
15408;SDS011;7803;48.130;13.788;2022-07-05T18:54:47;3.50;;;3.20;;
15408;SDS011;7803;48.130;13.788;2022-07-05T18:57:49;4.80;;;3.65;;
15408;SDS011;7803;48.130;13.788;2022-07-05T19:00:53;3.20;;;2.90;;
15408;SDS011;7803;48.130;13.788;2022-07-05T19:03:55;3.40;;;3.10;;
15408;SDS011;7803;48.130;13.788;2022-07-05T19:06:57;3.28;;;2.83;;
15408;SDS011;7803;48.130;13.788;2022-07-05T19:10:17;3.45;;;3.13;;
15408;SDS011;7803;48.130;13.788;2022-07-05T19:13:36;3.20;;;2.90;;
15408;SDS011;7803;48.130;13.788;2022-07-05T19:16:48;3.20;;;3.00;;
15408;SDS011;7803;48.130;13.788;2022-07-05T19:19:50;3.38;;;3.08;;
15408;SDS011;7803;48.130;13.788;2022-07-05T19:22:52;3.25;;;3.05;;
15408;SDS011;7803;48.130;13.788;2022-07-05T19:25:54;3.35;;;3.05;;
15408;SDS011;7803;48.130;13.788;2022-07-05T19:28:57;3.55;;;2.95;;
15408;SDS011;7803;48.130;13.788;2022-07-05T19:32:00;3.10;;;2.90;;
15408;SDS011;7803;48.130;13.788;2022-07-05T19:35:02;3.00;;;2.80;;
15408;SDS011;7803;48.130;13.788;2022-07-05T19:38:05;3.33;;;3.03;;
15408;SDS011;7803;48.130;13.788;2022-07-05T19:41:07;3.22;;;2.95;;
15408;SDS011;7803;48.130;13.788;2022-07-05T19:44:09;3.13;;;2.80;;
15408;SDS011;7803;48.130;13.788;2022-07-05T19:47:12;3.05;;;2.85;;
15408;SDS011;7803;48.130;13.788;2022-07-05T19:50:14;3.88;;;3.20;;
15408;SDS011;7803;48.130;13.788;2022-07-05T19:53:17;3.83;;;3.00;;
15408;SDS011;7803;48.130;13.788;2022-07-05T19:56:19;3.53;;;3.22;;
15408;SDS011;7803;48.130;13.788;2022-07-05T19:59:21;3.63;;;3.33;;
15408;SDS011;7803;48.130;13.788;2022-07-05T20:02:25;2.97;;;2.78;;
15408;SDS011;7803;48.130;13.788;2022-07-05T20:05:27;3.40;;;3.10;;
15408;SDS011;7803;48.130;13.788;2022-07-05T20:08:29;3.83;;;2.88;;
15408;SDS011;7803;48.130;13.788;2022-07-05T20:11:31;3.88;;;3.08;;
15408;SDS011;7803;48.130;13.788;2022-07-05T20:14:34;3.38;;;3.05;;
15408;SDS011;7803;48.130;13.788;2022-07-05T20:17:38;3.10;;;2.88;;
15408;SDS011;7803;48.130;13.788;2022-07-05T20:20:40;3.47;;;3.05;;
15408;SDS011;7803;48.130;13.788;2022-07-05T20:23:42;3.28;;;2.83;;
15408;SDS011;7803;48.130;13.788;2022-07-05T20:26:44;3.83;;;3.33;;
15408;SDS011;7803;48.130;13.788;2022-07-05T20:29:47;3.40;;;3.10;;
15408;SDS011;7803;48.130;13.788;2022-07-05T20:32:51;3.38;;;3.08;;
15408;SDS011;7803;48.130;13.788;2022-07-05T20:35:53;3.35;;;2.97;;
15408;SDS011;7803;48.130;13.788;2022-07-05T20:38:55;3.70;;;3.40;;
15408;SDS011;7803;48.130;13.788;2022-07-05T20:41:57;3.78;;;3.35;;
15408;SDS011;7803;48.130;13.788;2022-07-05T20:44:59;4.13;;;3.72;;
15408;SDS011;7803;48.130;13.788;2022-07-05T20:48:02;3.67;;;3.38;;
15408;SDS011;7803;48.130;13.788;2022-07-05T20:51:04;3.50;;;3.20;;
15408;SDS011;7803;48.130;13.788;2022-07-05T20:54:06;3.55;;;3.20;;
15408;SDS011;7803;48.130;13.788;2022-07-05T20:57:08;4.95;;;3.47;;
15408;SDS011;7803;48.130;13.788;2022-07-05T21:00:10;3.75;;;3.45;;
15408;SDS011;7803;48.130;13.788;2022-07-05T21:03:14;3.45;;;3.15;;
15408;SDS011;7803;48.130;13.788;2022-07-05T21:06:16;4.20;;;3.80;;
15408;SDS011;7803;48.130;13.788;2022-07-05T21:09:18;3.90;;;3.50;;
15408;SDS011;7803;48.130;13.788;2022-07-05T21:12:20;3.90;;;3.60;;
15408;SDS011;7803;48.130;13.788;2022-07-05T21:15:22;4.28;;;3.00;;
15408;SDS011;7803;48.130;13.788;2022-07-05T21:18:26;3.40;;;3.10;;
15408;SDS011;7803;48.130;13.788;2022-07-05T21:21:28;3.28;;;3.00;;
15408;SDS011;7803;48.130;13.788;2022-07-05T21:24:30;3.00;;;2.80;;
15408;SDS011;7803;48.130;13.788;2022-07-05T21:27:33;3.30;;;3.10;;
15408;SDS011;7803;48.130;13.788;2022-07-05T21:30:35;3.60;;;2.80;;
15408;SDS011;7803;48.130;13.788;2022-07-05T21:33:39;3.08;;;2.80;;
15408;SDS011;7803;48.130;13.788;2022-07-05T21:36:41;3.65;;;3.05;;
15408;SDS011;7803;48.130;13.788;2022-07-05T21:39:43;3.00;;;2.80;;
15408;SDS011;7803;48.130;13.788;2022-07-05T21:42:45;3.15;;;2.85;;
15408;SDS011;7803;48.130;13.788;2022-07-05T21:45:47;2.70;;;2.50;;
15408;SDS011;7803;48.130;13.788;2022-07-05T21:48:51;2.80;;;2.50;;
15408;SDS011;7803;48.130;13.788;2022-07-05T21:51:53;2.90;;;2.55;;
15408;SDS011;7803;48.130;13.788;2022-07-05T21:54:55;2.60;;;2.40;;
15408;SDS011;7803;48.130;13.788;2022-07-05T21:57:57;3.85;;;2.95;;
15408;SDS011;7803;48.130;13.788;2022-07-05T22:00:59;4.38;;;2.60;;
15408;SDS011;7803;48.130;13.788;2022-07-05T22:04:20;2.85;;;2.55;;
15408;SDS011;7803;48.130;13.788;2022-07-05T22:07:25;2.83;;;2.63;;
15408;SDS011;7803;48.130;13.788;2022-07-05T22:10:27;2.88;;;2.67;;
15408;SDS011;7803;48.130;13.788;2022-07-05T22:13:29;2.70;;;2.50;;
15408;SDS011;7803;48.130;13.788;2022-07-05T22:16:31;4.07;;;2.60;;
15408;SDS011;7803;48.130;13.788;2022-07-05T22:19:35;2.88;;;2.67;;
15408;SDS011;7803;48.130;13.788;2022-07-05T22:22:37;2.90;;;2.47;;
15408;SDS011;7803;48.130;13.788;2022-07-05T22:25:39;3.28;;;2.60;;
15408;SDS011;7803;48.130;13.788;2022-07-05T22:28:41;3.05;;;2.75;;
15408;SDS011;7803;48.130;13.788;2022-07-05T22:31:43;2.47;;;2.28;;
15408;SDS011;7803;48.130;13.788;2022-07-05T22:34:46;3.65;;;2.80;;
15408;SDS011;7803;48.130;13.788;2022-07-05T22:37:48;3.55;;;2.40;;
15408;SDS011;7803;48.130;13.788;2022-07-05T22:40:50;2.50;;;2.30;;